Fédération internationale de Ski
Member Section
Print

OFFICIAL RESULTS

Hafjell (NOR) 10.03.2015

FIS Junior World Ski Championships - Ladies' FIS Junior World Ski Championships OFFICIAL RESULTS

Race codex : 5177
Valid for FIS Points : YES
1 files available



Jury
TD FIS ZINGERLE JOSEF ITA
Referee Janez FLERE FIS
Assistant Referee Christian BRUESCH SUI
Chief of Race Roland JOHANSON NOR
Technical Data
Start Altitude 765 m.
Finish Altitude 270 m.
Vertical Drop 495 m.
Course Length 1780 m.
Homologation Number 11619/01/15
Run 1
Course Setter Martin LACKNER
Number of Gates 38
Start Time 1130
 
Show more info»

Competitors

Rank Bib FIS Code Name Year Nation Total Time Diff. FIS Points
 1  35  298767 SOSIO Federica  1994  ITA   1:23.81     10.33
 2  30  426100 HOLTMANN Mina Fuerst  1995  NOR   1:24.02  +0.21  13.04
 3  2  516344 KOPP Rahel  1994  SUI   1:24.11  +0.30  14.20
 4  7  197497 MIRADOLI Romane  1994  FRA   1:24.38  +0.57  17.68
 5  28  107387 CRAWFORD Candace  1994  CAN   1:24.95  +1.14  25.02
 6  17  516528 MEILLARD Melanie  1998  SUI   1:24.96  +1.15  25.15
 7  37  299276 BASSINO Marta  1996  ITA   1:25.12  +1.31  27.21
 8  8  56328 ORTLIEB Nina  1996  AUT   1:25.15  +1.34  27.60
 9  34  299402 GASSLITTER Verena  1996  ITA   1:25.16  +1.35  27.73
 9  13  206548 MAGG Ann Katrin  1994  GER   1:25.16  +1.35  27.73
 11  32  56258 AGER Christina  1995  AUT   1:25.26  +1.45  29.02
 12  19  206520 DORSCH Patrizia  1994  GER   1:25.28  +1.47  29.27
 13  25  56311 REISINGER Elisabeth  1996  AUT   1:25.30  +1.49  29.53
 14  33  426032 TRULSRUD Tonje Healey  1994  NOR   1:25.31  +1.50  29.66
 14  26  299466 DELAGO Nicole  1996  ITA   1:25.31  +1.50  29.66
 16  22  299029 GALLI Jole  1995  ITA   1:25.36  +1.55  30.30
 17  4  56283 RETTENWENDER Martina  1995  AUT   1:25.38  +1.57  30.56
 18  36  485749 PROKOPYEVA Aleksandra  1994  RUS   1:25.41  +1.60  30.95
 19  31  299363 ZENERE Asja  1996  ITA   1:25.42  +1.61  31.08
 20  11  426043 TVIBERG Maria Therese  1994  NOR   1:25.51  +1.70  32.24
 21  23  516429 GROEBLI Nathalie  1996  SUI   1:25.59  +1.78  33.27
 22  15  206668 WEIDLE Kira  1996  GER   1:25.62  +1.81  33.65
 23  38  565417 PLUT Eli  1994  SLO   1:25.65  +1.84  34.04
 24  12  197665 LARROUY Noemie  1995  FRA   1:25.94  +2.13  37.78
 25  6  197641 GAUCHE Laura  1995  FRA   1:25.95  +2.14  37.91
 26  73  516406 JENAL Larissa  1996  SUI   1:25.96  +2.15  38.04
 27  18  6535455 JOHNSON Breezy  1996  USA   1:25.99  +2.18  38.42
 28  27  426092 CHRISTENSEN Nora Grieg  1995  NOR   1:26.17  +2.36  40.74
 29  41  506584 RAPAPORT Helena  1994  SWE   1:26.19  +2.38  41.00
 30  39  6535773 O BRIEN Nina  1997  USA   1:26.37  +2.56  43.32
 31  44  426187 LYSDAHL Kristin Anna  1996  NOR   1:26.38  +2.57  43.45
 32  45  539909 MOLTZAN Paula  1994  USA   1:26.50  +2.69  44.99
 33  42  45331 SMALL Greta  1995  AUS   1:26.54  +2.73  45.51
 34  20  426153 NORBYE Tuva  1996  NOR   1:26.63  +2.82  46.67
 35  46  435334 GASIENICA-DANIEL Maryna  1994  POL   1:26.67  +2.86  47.18
 36  47  385096 POPOVIC Leona  1997  CRO   1:26.75  +2.94  48.22
 37  29  6535600 MERRYWEATHER Alice  1996  USA   1:26.84  +3.03  49.38
 38  50  516351 DAYER Julie  1995  SUI   1:27.17  +3.36  53.63
 39  53  705423 VLHOVA Petra  1995  SVK   1:27.32  +3.51  55.56
 40  48  565428 BREZOVNIK Sasa  1995  SLO   1:27.47  +3.66  57.49
 41  10  197592 REILLER Gaelle  1995  FRA   1:27.61  +3.80  59.30
 42  61  405138 JELINKOVA Adriana  1995  NED   1:27.77  +3.96  61.36
 43  51  415205 HUDSON Piera  1996  NZL   1:27.79  +3.98  61.62
 44  59  225572 BROWN Cara  1994  GBR   1:28.21  +4.40  67.03
 44  58  465098 CAILL Ania Monica  1995  ROU   1:28.21  +4.40  67.03
 46  63  496138 BARGALLO Julia  1995  ESP   1:28.23  +4.42  67.29
 47  65  565447 SEIDL Claudia  1996  SLO   1:28.75  +4.94  73.99
 48  62  307493 ANDO Asa  1996  JPN   1:28.76  +4.95  74.12
 49  54  107583 REMME Roni  1996  CAN   1:28.90  +5.09  75.92
 50  55  485868 POGREBITSKAYA Olga  1996  RUS   1:28.97  +5.16  76.82
 51  52  485799 ALEXEEVA Nadezda  1995  RUS   1:29.43  +5.62  82.75
 52  66  555036 ABOLTINA Agnese  1996  LAT   1:29.81  +6.00  87.65
 52  64  107562 GARTNER Stephanie  1996  CAN   1:29.81  +6.00  87.65
 54  72  565403 LIVK Klara  1994  SLO   1:29.93  +6.12  89.19
 55  69  155873 ARNOLD Andrea  1998  CZE   1:29.94  +6.13  89.32
 56  68  255367 VILHJALMSDOTTIR Helga Maria  1995  ISL   1:30.00  +6.19  90.10
 57  56  225612 MEAD Darcie  1996  GBR   1:30.16  +6.35  92.16
 58  67  155790 CAMKOVA Veronika  1996  CZE   1:30.26  +6.45  93.45
 59  74  185411 LUUKKO Nea  1996  FIN   1:30.38  +6.57  94.99
 60  71  225665 JENKINS Megan  1998  GBR   1:30.59  +6.78  97.70
 61  75  435371 WASEK Katarzyna  1996  POL   1:30.73  +6.92  99.50
 62  60  565453 AJLEC Desiree  1996  SLO   1:31.27  +7.46  106.46
 63  78  65108 NELLES Mathilde  1997  BEL   1:32.59  +8.78  123.47
 64  70  225641 CLISSOLD Honor  1997  GBR   1:32.90  +9.09  127.47
 65  76  255364 SOLVADOTTIR Audur-Brynja  1995  ISL   1:33.26  +9.45  132.11
 65  57  107556 MCCARTHY Jocelyn  1996  CAN   1:33.26  +9.45  132.11
 67  79  675036 KARPOVA Yekaterina  1998  KAZ   1:33.32  +9.51  132.88
Did not finish 1st run
   77  185430 HONKANEN Riikka  1998  FIN       
   49  6535765 MANGAN Patricia  1997  USA       
   43  506701 HOERNBLAD Lisa  1996  SWE       
   40  485807 OVCHINIKOVA Daria  1995  RUS       
   24  56199 KAPPAURER Elisabeth  1994  AUT       
   21  206532 SCHMOTZ Marlene  1994  GER       
   16  539932 IRWIN Katharine  1994  USA       
   14  107613 GRENIER Valerie  1996  CAN       
   9  197616 ALPHAND Estelle  1995  FRA       
   5  56200 NICOLUSSI Kerstin  1994  AUT       
   3  107532 TOMMY Mikaela  1995  CAN       
   1  197812 GERACI Romane  1997  FRA